createdAt,value
2024-04-22T00:00:57.570Z,102088.81
2024-04-22T00:03:22.794Z,102084.09
2024-04-22T00:05:54.067Z,102087.88
2024-04-22T00:08:19.375Z,102073.84
2024-04-22T00:10:41.922Z,102077.34
2024-04-22T00:13:07.646Z,102079.84
2024-04-22T00:15:32.851Z,102079.13
2024-04-22T00:17:58.108Z,102070.16
2024-04-22T00:20:20.709Z,102081.59
2024-04-22T00:22:45.965Z,102072.81
2024-04-22T00:25:08.628Z,102071.38
2024-04-22T00:27:33.861Z,102069.50
2024-04-22T00:29:59.063Z,102079.56
2024-04-22T00:32:24.469Z,102070.56
2024-04-22T00:34:50.521Z,102070.34
2024-04-22T00:37:13.285Z,102066.94
2024-04-22T00:39:38.586Z,102068.25
2024-04-22T00:42:01.242Z,102070.69
2024-04-22T00:44:26.442Z,102067.06
2024-04-22T00:46:49.157Z,102069.63
2024-04-22T00:49:17.665Z,102062.66
2024-04-22T00:51:40.905Z,102060.97
2024-04-22T00:54:06.291Z,102068.09
2024-04-22T00:56:30.312Z,102060.44
2024-04-22T00:58:55.575Z,102068.03
2024-04-22T01:01:19.638Z,102065.63
2024-04-22T01:03:45.502Z,102059.50
2024-04-22T01:06:11.040Z,102064.81
2024-04-22T01:08:36.283Z,102064.63
2024-04-22T01:10:59.674Z,102065.66
2024-04-22T01:13:25.270Z,102067.34
2024-04-22T01:15:47.952Z,102076.25
2024-04-22T01:18:19.434Z,102075.50
2024-04-22T01:20:42.114Z,102066.19
2024-04-22T01:23:09.950Z,102080.16
2024-04-22T01:25:35.031Z,102075.69
2024-04-22T01:28:00.316Z,102068.75
2024-04-22T01:30:22.976Z,102070.38
2024-04-22T01:32:48.265Z,102065.19
2024-04-22T01:35:11.214Z,102069.66
2024-04-22T01:37:36.700Z,102064.16
2024-04-22T01:40:02.584Z,102068.78
2024-04-22T01:42:28.893Z,102068.78
2024-04-22T01:44:52.007Z,102068.56
2024-04-22T01:47:17.317Z,102062.56
2024-04-22T01:49:40.056Z,102063.44
2024-04-22T01:52:05.507Z,102066.19
2024-04-22T01:54:28.137Z,102058.38
2024-04-22T01:56:56.577Z,102057.50
2024-04-22T01:59:19.409Z,102055.72
2024-04-22T02:01:45.270Z,102053.91
2024-04-22T02:04:08.026Z,102054.75
2024-04-22T02:06:33.220Z,102053.06
2024-04-22T02:08:55.960Z,102053.16
2024-04-22T02:11:21.303Z,102051.53
2024-04-22T02:13:46.791Z,102045.38
2024-04-22T02:16:12.075Z,102040.91
2024-04-22T02:18:34.724Z,102054.13
2024-04-22T02:20:59.950Z,102048.88
2024-04-22T02:23:22.779Z,102058.53
2024-04-22T02:25:48.392Z,102044.63
2024-04-22T02:28:11.090Z,102035.19
2024-04-22T02:30:39.665Z,102037.66
2024-04-22T02:33:02.541Z,102033.28
2024-04-22T02:35:27.817Z,102032.41
2024-04-22T02:37:50.542Z,102039.50
2024-04-22T02:40:16.212Z,102038.56
2024-04-22T02:42:38.853Z,102032.50
2024-04-22T02:45:04.032Z,102027.31
2024-04-22T02:47:29.477Z,102029.13
2024-04-22T02:49:54.737Z,102024.75
2024-04-22T02:52:17.362Z,102027.38
2024-04-22T02:54:42.584Z,102023.09
2024-04-22T02:57:05.768Z,102020.34
2024-04-22T02:59:32.678Z,102023.06
2024-04-22T03:01:55.304Z,102021.38
2024-04-22T03:04:23.332Z,102030.16
2024-04-22T03:06:45.990Z,102038.06
2024-04-22T03:09:11.216Z,102026.69
2024-04-22T03:11:33.914Z,102028.63
2024-04-22T03:13:59.101Z,102034.75
2024-04-22T03:16:21.830Z,102025.13
2024-04-22T03:18:50.009Z,102027.75
2024-04-22T03:21:15.354Z,102018.09
2024-04-22T03:23:40.542Z,102020.72
2024-04-22T03:26:03.192Z,102026.00
2024-04-22T03:28:28.418Z,102027.84
2024-04-22T03:30:51.029Z,102024.34
2024-04-22T03:33:17.350Z,102031.38
2024-04-22T03:35:40.078Z,102021.66
2024-04-22T03:38:08.191Z,102020.00
2024-04-22T03:40:33.580Z,102028.91
2024-04-22T03:42:56.149Z,102023.53
2024-04-22T03:45:21.361Z,102041.13
2024-04-22T03:48:02.636Z,102030.84
2024-04-22T03:50:27.892Z,102039.44
2024-04-22T03:52:50.426Z,102030.75
2024-04-22T03:55:18.461Z,102033.16
2024-04-22T03:57:41.026Z,102028.91
2024-04-22T04:00:06.577Z,102035.09
2024-04-22T04:02:34.514Z,102032.31
2024-04-22T04:04:59.821Z,102031.53
2024-04-22T04:07:22.454Z,102028.91
2024-04-22T04:09:47.763Z,102027.31
2024-04-22T04:12:13.019Z,102025.47
2024-04-22T04:14:38.292Z,102030.72
2024-04-22T04:17:01.027Z,102034.06
2024-04-22T04:19:27.250Z,102034.06
2024-04-22T04:21:49.998Z,102037.59
2024-04-22T04:24:15.305Z,102030.56
2024-04-22T04:26:37.913Z,102033.03
2024-04-22T04:29:05.880Z,102035.63
2024-04-22T04:31:28.527Z,102034.63
2024-04-22T04:33:53.911Z,102029.16
2024-04-22T04:36:16.636Z,102030.91
2024-04-22T04:38:41.961Z,102021.22
2024-04-22T04:41:05.591Z,102022.84
2024-04-22T04:43:31.799Z,102018.94
2024-04-22T04:45:57.156Z,102018.59
2024-04-22T04:48:23.044Z,102022.78
2024-04-22T04:50:46.445Z,102025.97
2024-04-22T04:53:11.745Z,102027.56
2024-04-22T04:55:34.330Z,102027.41
2024-04-22T04:57:59.646Z,102036.06
2024-04-22T05:00:22.217Z,102036.69
2024-04-22T05:02:50.197Z,102028.50
2024-04-22T05:05:12.818Z,102030.13
2024-04-22T05:07:38.402Z,102023.78
2024-04-22T05:10:00.983Z,102021.03
2024-04-22T05:12:26.261Z,102014.56
2024-04-22T05:14:48.918Z,102034.81
2024-04-22T05:17:14.218Z,102032.31
2024-04-22T05:19:39.527Z,102030.47
2024-04-22T05:22:04.902Z,102027.13
2024-04-22T05:24:29.729Z,102014.94
2024-04-22T05:26:55.291Z,102024.16
2024-04-22T05:29:17.997Z,102027.88
2024-04-22T05:31:43.374Z,102024.16
2024-04-22T05:34:24.417Z,102027.31
2024-04-22T05:36:52.338Z,102025.97
2024-04-22T05:39:14.927Z,102030.09
2024-04-22T05:41:40.810Z,102028.91
2024-04-22T05:44:03.549Z,102018.31
2024-04-22T05:46:28.872Z,102019.97
2024-04-22T05:48:51.449Z,102016.75
2024-04-22T05:51:16.743Z,102021.69
2024-04-22T05:53:41.891Z,102016.91
2024-04-22T05:56:07.736Z,102017.09
2024-04-22T05:58:30.536Z,102006.69
2024-04-22T06:00:55.904Z,102015.78
2024-04-22T06:03:18.662Z,102013.69
2024-04-22T06:05:43.933Z,102018.25
2024-04-22T06:08:07.974Z,102019.59
2024-04-22T06:10:37.490Z,102022.50
2024-04-22T06:13:00.178Z,102013.53
2024-04-22T06:15:25.414Z,102013.66
2024-04-22T06:17:48.111Z,102010.53
2024-04-22T06:20:13.863Z,102014.44
2024-04-22T06:22:36.970Z,102012.97
2024-04-22T06:25:02.293Z,102012.38
2024-04-22T06:27:27.593Z,102016.09
2024-04-22T06:29:53.008Z,102010.22
2024-04-22T06:32:16.868Z,102013.66
2024-04-22T06:34:42.417Z,102011.31
2024-04-22T06:37:05.673Z,102014.63
2024-04-22T06:39:30.997Z,102012.31
2024-04-22T06:41:53.865Z,102015.72
2024-04-22T06:44:21.880Z,102008.41
2024-04-22T06:46:44.534Z,102021.22
2024-04-22T06:49:09.880Z,102010.94
2024-04-22T06:51:32.582Z,102010.75
2024-04-22T06:53:57.774Z,102011.72
2024-04-22T06:56:20.456Z,102010.50
2024-04-22T06:58:45.772Z,102006.34
2024-04-22T07:01:17.770Z,102001.91
2024-04-22T07:03:49.548Z,102002.97
2024-04-22T07:06:13.378Z,102002.03
2024-04-22T07:08:38.593Z,102005.97
2024-04-22T07:11:01.220Z,101998.59
2024-04-22T07:13:26.531Z,101998.31
2024-04-22T07:15:49.062Z,102004.13
2024-04-22T07:18:17.095Z,102002.84
2024-04-22T07:20:39.652Z,102003.44
2024-04-22T07:23:05.274Z,101999.91
2024-04-22T07:25:27.852Z,101997.81
2024-04-22T07:27:53.952Z,102003.28
2024-04-22T07:30:22.440Z,102001.78
2024-04-22T07:32:48.639Z,102008.41
2024-04-22T07:35:15.940Z,102005.59
2024-04-22T07:37:47.116Z,102007.63
2024-04-22T07:40:15.395Z,102006.56
2024-04-22T07:42:40.968Z,102004.22
2024-04-22T07:45:04.002Z,102007.75
2024-04-22T07:47:29.378Z,102008.19
2024-04-22T07:49:52.083Z,102003.97
2024-04-22T07:52:20.847Z,102002.13
2024-04-22T07:54:44.464Z,102003.94
2024-04-22T07:57:11.449Z,102015.97
2024-04-22T07:59:34.851Z,102016.81
2024-04-22T08:02:01.041Z,102007.75
2024-04-22T08:04:24.814Z,102018.66
2024-04-22T08:06:53.114Z,102003.97
2024-04-22T08:09:18.441Z,102006.34
2024-04-22T08:11:43.868Z,102005.84
2024-04-22T08:14:06.490Z,102012.63
2024-04-22T08:16:31.753Z,102016.91
2024-04-22T08:18:55.136Z,102018.44
2024-04-22T08:21:20.288Z,102011.69
2024-04-22T08:23:44.430Z,102009.69
2024-04-22T08:26:12.241Z,102007.44
2024-04-22T08:28:35.096Z,102007.78
2024-04-22T08:31:04.419Z,102009.22
2024-04-22T08:33:27.138Z,102018.88
2024-04-22T08:35:52.390Z,102004.47
2024-04-22T08:38:15.055Z,102011.00
2024-04-22T08:40:46.403Z,101993.00
2024-04-22T08:43:15.231Z,102006.22
2024-04-22T08:45:43.915Z,101992.84
2024-04-22T08:48:07.876Z,101994.91
2024-04-22T08:50:33.482Z,101994.75
2024-04-22T08:52:57.155Z,101988.69
2024-04-22T08:55:22.558Z,101998.63
2024-04-22T08:57:45.193Z,101995.97
2024-04-22T09:00:14.596Z,101996.78
2024-04-22T09:02:37.329Z,101992.28
2024-04-22T09:05:06.752Z,101995.34
2024-04-22T09:07:31.295Z,101993.53
2024-04-22T09:10:21.941Z,101993.50
2024-04-22T09:12:42.666Z,101997.06
2024-04-22T09:15:09.429Z,101988.09
2024-04-22T09:17:35.342Z,101990.25
2024-04-22T09:20:00.958Z,101991.53
2024-04-22T09:22:23.719Z,101988.25
2024-04-22T09:24:49.138Z,101986.88
2024-04-22T09:27:12.141Z,101984.53
2024-04-22T09:29:44.710Z,101979.28
2024-04-22T09:32:12.274Z,101983.91
2024-04-22T09:34:45.098Z,101983.13
2024-04-22T09:37:09.327Z,101986.38
2024-04-22T09:39:37.472Z,101979.78
2024-04-22T09:42:00.897Z,101983.91
2024-04-22T09:44:27.716Z,101980.69
2024-04-22T09:46:52.732Z,101988.63
2024-04-22T09:49:21.072Z,101989.16
2024-04-22T09:51:47.931Z,101987.72
2024-04-22T09:54:13.355Z,101989.28
2024-04-22T09:56:38.833Z,101983.72
2024-04-22T09:59:07.268Z,101985.50
2024-04-22T10:01:30.243Z,101992.56
2024-04-22T10:03:56.075Z,101990.38
2024-04-22T10:06:21.951Z,102000.66
2024-04-22T10:08:51.270Z,101997.59
2024-04-22T10:11:14.172Z,101999.28
2024-04-22T10:13:40.642Z,102008.44
2024-04-22T10:16:04.083Z,101993.56
2024-04-22T10:18:29.325Z,102000.47
2024-04-22T10:20:53.303Z,101997.41
2024-04-22T10:23:18.913Z,101987.22
2024-04-22T10:25:45.365Z,101984.69
2024-04-22T10:28:12.392Z,101987.53
2024-04-22T10:30:36.188Z,101980.72
2024-04-22T10:33:01.436Z,101981.91
2024-04-22T10:35:24.111Z,101987.22
2024-04-22T10:37:49.330Z,101986.75
2024-04-22T10:40:12.352Z,101995.16
2024-04-22T10:42:40.290Z,102000.81
2024-04-22T10:45:03.036Z,102002.06
2024-04-22T10:47:29.378Z,102000.66
2024-04-22T10:49:52.240Z,101994.78
2024-04-22T10:52:17.635Z,101991.34
2024-04-22T10:54:40.319Z,101984.16
2024-04-22T10:57:05.725Z,101976.75
2024-04-22T10:59:31.200Z,101979.38
2024-04-22T11:01:56.600Z,101976.16
2024-04-22T11:04:20.785Z,101974.97
2024-04-22T11:06:47.534Z,101976.00
2024-04-22T11:09:12.494Z,101965.75
2024-04-22T11:11:38.360Z,101963.22
2024-04-22T11:14:01.481Z,101962.56
2024-04-22T11:16:29.298Z,101959.59
2024-04-22T11:19:04.729Z,101959.50
2024-04-22T11:21:31.799Z,101951.47
2024-04-22T11:23:54.468Z,101946.22
2024-04-22T11:26:20.674Z,101946.22
2024-04-22T11:28:43.323Z,101941.63
2024-04-22T11:31:11.052Z,101946.50
2024-04-22T11:33:36.348Z,101939.66
2024-04-22T11:36:02.374Z,101932.81
2024-04-22T11:38:25.363Z,101932.38
2024-04-22T11:40:52.049Z,101938.53
2024-04-22T11:43:14.887Z,101931.16
2024-04-22T11:45:40.261Z,101920.25
2024-04-22T11:48:02.973Z,101931.06
2024-04-22T11:50:31.267Z,101928.16
2024-04-22T11:52:54.036Z,101915.75
2024-04-22T11:55:19.563Z,101925.75
2024-04-22T11:57:42.476Z,101917.88
2024-04-22T12:00:09.324Z,101917.00
2024-04-22T12:02:32.167Z,101914.44
2024-04-22T12:04:58.926Z,101915.38
2024-04-22T12:07:24.344Z,101907.09
2024-04-22T12:09:49.592Z,101902.53
2024-04-22T12:12:12.448Z,101893.88
2024-04-22T12:14:37.760Z,101890.78
2024-04-22T12:17:00.478Z,101885.41
2024-04-22T12:19:25.932Z,101878.31
2024-04-22T12:21:48.812Z,101877.88
2024-04-22T12:24:16.684Z,101865.56
2024-04-22T12:26:39.311Z,101872.28
2024-04-22T12:29:04.630Z,101866.94
2024-04-22T12:31:27.464Z,101866.28
2024-04-22T12:33:58.776Z,101868.41
2024-04-22T12:36:29.522Z,101861.88
2024-04-22T12:38:54.732Z,101878.47
2024-04-22T12:41:20.226Z,101892.41
2024-04-22T12:43:45.646Z,101894.56
2024-04-22T12:46:09.139Z,101892.47
2024-04-22T12:48:50.356Z,101895.53
2024-04-22T12:51:15.687Z,101899.69
2024-04-22T12:53:41.020Z,101896.78
2024-04-22T12:56:07.094Z,101894.28
2024-04-22T12:58:38.414Z,101890.44
2024-04-22T13:01:06.030Z,101897.03
2024-04-22T13:03:31.661Z,101888.97
2024-04-22T13:05:57.678Z,101886.66
2024-04-22T13:08:23.272Z,101879.81
2024-04-22T13:10:48.776Z,101868.53
2024-04-22T13:13:14.679Z,101876.03
2024-04-22T13:15:43.200Z,101875.94
2024-04-22T13:18:09.193Z,101872.56
2024-04-22T13:20:34.558Z,101868.78
2024-04-22T13:22:57.334Z,101867.50
2024-04-22T13:25:22.696Z,101865.47
2024-04-22T13:27:45.602Z,101871.22
2024-04-22T13:30:14.343Z,101864.06
2024-04-22T13:32:44.872Z,101871.22
2024-04-22T13:35:08.031Z,101859.72
2024-04-22T13:37:33.466Z,101860.13
2024-04-22T13:39:56.236Z,101862.81
2024-04-22T13:42:21.845Z,101854.28
2024-04-22T13:44:44.948Z,101855.13
2024-04-22T13:47:10.509Z,101853.94
2024-04-22T13:49:35.943Z,101849.94
2024-04-22T13:52:01.481Z,101848.31
2024-04-22T13:54:24.265Z,101846.28
2024-04-22T13:56:49.709Z,101847.84
2024-04-22T13:59:12.948Z,101846.28
2024-04-22T14:01:40.036Z,101849.94
2024-04-22T14:04:02.830Z,101844.78
2024-04-22T14:06:30.642Z,101850.97
2024-04-22T14:08:53.487Z,101848.97
2024-04-22T14:11:19.194Z,101849.84
2024-04-22T14:13:42.161Z,101846.88
2024-04-22T14:16:08.929Z,101850.44
2024-04-22T14:18:31.802Z,101847.59
2024-04-22T14:20:57.532Z,101854.16
2024-04-22T14:23:25.579Z,101857.03
2024-04-22T14:25:48.487Z,101854.09
2024-04-22T14:28:13.893Z,101854.66
2024-04-22T14:30:36.549Z,101854.63
2024-04-22T14:33:01.942Z,101852.69
2024-04-22T14:35:24.607Z,101846.31
2024-04-22T14:37:50.046Z,101853.72
2024-04-22T14:40:15.626Z,101865.69
2024-04-22T14:42:41.363Z,101877.94
2024-04-22T14:45:04.442Z,101871.38
2024-04-22T14:47:30.118Z,101890.38
2024-04-22T14:49:52.810Z,101893.66
2024-04-22T14:52:18.202Z,101882.41
2024-04-22T14:54:42.708Z,101877.25
2024-04-22T14:57:10.778Z,101879.97
2024-04-22T14:59:34.507Z,101873.38
2024-04-22T15:01:59.880Z,101875.22
2024-04-22T15:04:22.753Z,101868.34
2024-04-22T15:06:49.413Z,101856.78
2024-04-22T15:09:12.299Z,101867.63
2024-04-22T15:11:37.807Z,101862.28
2024-04-22T15:14:03.228Z,101856.41
2024-04-22T15:16:28.698Z,101860.31
2024-04-22T15:18:51.412Z,101856.31
2024-04-22T15:21:18.036Z,101860.41
2024-04-22T15:23:41.643Z,101856.28
2024-04-22T15:26:07.319Z,101856.56
2024-04-22T15:28:29.991Z,101857.72
2024-04-22T15:30:57.947Z,101850.88
2024-04-22T15:33:21.404Z,101856.38
2024-04-22T15:35:46.853Z,101856.56
2024-04-22T15:38:09.501Z,101862.53
2024-04-22T15:40:37.758Z,101850.09
2024-04-22T15:43:00.769Z,101851.25
2024-04-22T15:45:26.070Z,101842.41
2024-04-22T15:47:52.183Z,101848.09
2024-04-22T15:50:17.843Z,101840.91
2024-04-22T15:52:40.529Z,101833.81
2024-04-22T15:55:05.836Z,101836.84
2024-04-22T15:57:28.363Z,101833.22
2024-04-22T16:00:01.860Z,101823.59
2024-04-22T16:02:31.822Z,101826.78
2024-04-22T16:04:59.773Z,101828.91
2024-04-22T16:07:23.005Z,101830.97
2024-04-22T16:09:48.288Z,101823.81
2024-04-22T16:12:10.958Z,101836.19
2024-04-22T16:14:38.319Z,101833.66
2024-04-22T16:17:00.949Z,101825.78
2024-04-22T16:19:26.542Z,101827.03
2024-04-22T16:21:51.922Z,101831.13
2024-04-22T16:24:17.127Z,101829.06
2024-04-22T16:26:40.196Z,101832.28
2024-04-22T16:29:09.574Z,101826.16
2024-04-22T16:31:32.428Z,101832.13
2024-04-22T16:33:57.613Z,101837.22
2024-04-22T16:36:20.229Z,101840.34
2024-04-22T16:38:48.141Z,101846.00
2024-04-22T16:41:11.321Z,101838.91
2024-04-22T16:43:36.851Z,101846.09
2024-04-22T16:45:59.586Z,101830.88
2024-04-22T16:48:26.582Z,101837.91
2024-04-22T16:50:50.252Z,101839.25
2024-04-22T16:53:15.450Z,101838.69
2024-04-22T16:55:40.757Z,101844.84
2024-04-22T16:58:06.077Z,101838.78
2024-04-22T17:00:29.962Z,101845.28
2024-04-22T17:02:55.233Z,101853.13
2024-04-22T17:05:20.948Z,101851.28
2024-04-22T17:07:48.790Z,101853.25
2024-04-22T17:10:12.073Z,101849.97
2024-04-22T17:12:40.105Z,101856.94
2024-04-22T17:15:03.127Z,101855.69
2024-04-22T17:17:28.413Z,101848.09
2024-04-22T17:19:51.194Z,101853.38
2024-04-22T17:22:16.626Z,101851.34
2024-04-22T17:24:39.393Z,101852.75
2024-04-22T17:27:04.692Z,101849.25
2024-04-22T17:29:31.380Z,101849.16
2024-04-22T17:31:56.709Z,101859.63
2024-04-22T17:34:19.449Z,101849.22
2024-04-22T17:36:44.751Z,101851.44
2024-04-22T17:39:07.489Z,101845.94
2024-04-22T17:41:32.664Z,101854.16
2024-04-22T17:43:55.369Z,101851.78
2024-04-22T17:46:23.349Z,101848.88
2024-04-22T17:48:47.511Z,101847.16
2024-04-22T17:51:17.743Z,101850.78
2024-04-22T17:53:40.477Z,101858.38
2024-04-22T17:56:05.761Z,101851.19
2024-04-22T17:58:29.741Z,101851.66
2024-04-22T18:00:55.147Z,101849.44
2024-04-22T18:03:21.077Z,101854.84
2024-04-22T18:05:46.862Z,101860.13
2024-04-22T18:08:11.332Z,101853.53
2024-04-22T18:10:39.807Z,101862.94
2024-04-22T18:13:03.451Z,101845.91
2024-04-22T18:15:28.950Z,101849.59
2024-04-22T18:17:51.981Z,101856.09
2024-04-22T18:20:20.121Z,101852.13
2024-04-22T18:22:47.190Z,101849.81
2024-04-22T18:25:16.332Z,101854.06
2024-04-22T18:27:39.051Z,101845.63
2024-04-22T18:30:06.112Z,101854.66
2024-04-22T18:32:28.790Z,101858.59
2024-04-22T18:34:54.315Z,101849.84
2024-04-22T18:37:19.719Z,101860.47
2024-04-22T18:39:45.290Z,101866.03
2024-04-22T18:42:08.118Z,101859.84
2024-04-22T18:44:34.427Z,101866.28
2024-04-22T18:46:57.989Z,101866.56
2024-04-22T18:49:23.439Z,101864.66
2024-04-22T18:51:46.142Z,101863.91
2024-04-22T18:54:14.966Z,101863.66
2024-04-22T18:56:37.623Z,101865.00
2024-04-22T18:59:02.929Z,101870.50
2024-04-22T19:01:25.543Z,101864.69
2024-04-22T19:03:50.864Z,101874.81
2024-04-22T19:06:13.598Z,101870.53
2024-04-22T19:08:38.845Z,101875.25
2024-04-22T19:11:07.983Z,101871.84
2024-04-22T19:13:33.316Z,101874.84
2024-04-22T19:15:55.932Z,101863.72
2024-04-22T19:18:21.972Z,101870.94
2024-04-22T19:20:44.573Z,101870.47
2024-04-22T19:23:09.888Z,101874.22
2024-04-22T19:25:32.509Z,101873.81
2024-04-22T19:28:00.498Z,101867.50
2024-04-22T19:30:23.195Z,101864.94
2024-04-22T19:32:49.454Z,101867.28
2024-04-22T19:35:12.266Z,101867.59
2024-04-22T19:37:37.728Z,101871.59
2024-04-22T19:40:00.395Z,101868.41
2024-04-22T19:42:25.812Z,101866.72
2024-04-22T19:44:55.642Z,101867.59
2024-04-22T19:47:21.416Z,101870.78
2024-04-22T19:49:44.078Z,101876.72
2024-04-22T19:52:09.928Z,101867.06
2024-04-22T19:54:33.420Z,101865.47
2024-04-22T19:56:58.647Z,101875.22
2024-04-22T19:59:21.251Z,101876.84
2024-04-22T20:01:49.362Z,101875.66
2024-04-22T20:04:12.099Z,101875.00
2024-04-22T20:06:37.605Z,101872.72
2024-04-22T20:09:00.279Z,101869.97
2024-04-22T20:11:25.865Z,101874.47
2024-04-22T20:13:49.131Z,101875.06
2024-04-22T20:16:20.784Z,101871.38
2024-04-22T20:18:54.632Z,101871.75
2024-04-22T20:21:19.973Z,101870.75
2024-04-22T20:23:42.567Z,101875.47
2024-04-22T20:26:08.129Z,101874.69
2024-04-22T20:28:30.759Z,101873.97
2024-04-22T20:30:56.910Z,101869.53
2024-04-22T20:33:19.674Z,101864.75
2024-04-22T20:35:56.551Z,101869.84
2024-04-22T20:38:19.295Z,101876.81
2024-04-22T20:40:44.485Z,101869.91
2024-04-22T20:43:07.191Z,101870.91
2024-04-22T20:45:33.777Z,101873.59
2024-04-22T20:47:56.682Z,101865.44
2024-04-22T20:50:22.014Z,101876.22
2024-04-22T20:52:49.124Z,101870.84
2024-04-22T20:55:14.688Z,101869.09
2024-04-22T20:57:37.346Z,101869.16
2024-04-22T21:00:03.063Z,101864.84
2024-04-22T21:02:25.808Z,101872.78
2024-04-22T21:04:51.160Z,101875.84
2024-04-22T21:07:13.847Z,101866.22
2024-04-22T21:09:41.614Z,101866.97
2024-04-22T21:12:04.453Z,101866.94
2024-04-22T21:14:29.603Z,101861.13
2024-04-22T21:16:52.275Z,101857.16
2024-04-22T21:19:20.627Z,101863.31
2024-04-22T21:21:43.649Z,101863.94
2024-04-22T21:24:09.247Z,101865.91
2024-04-22T21:26:34.618Z,101864.97
2024-04-22T21:28:59.891Z,101860.53
2024-04-22T21:31:23.504Z,101869.47
2024-04-22T21:34:04.403Z,101868.78
2024-04-22T21:36:31.073Z,101860.66
2024-04-22T21:38:56.246Z,101869.69
2024-04-22T21:41:18.864Z,101863.41
2024-04-22T21:43:47.073Z,101858.16
2024-04-22T21:46:09.768Z,101864.31
2024-04-22T21:48:35.005Z,101859.97
2024-04-22T21:50:57.765Z,101861.56
2024-04-22T21:53:23.817Z,101863.53
2024-04-22T21:56:10.048Z,101854.13
2024-04-22T21:59:31.721Z,101859.22
2024-04-22T22:02:50.627Z,101859.13
2024-04-22T22:06:12.003Z,101855.56
2024-04-22T22:08:34.239Z,101863.41
2024-04-22T22:11:02.330Z,101860.50
2024-04-22T22:13:25.192Z,101851.47
2024-04-22T22:15:50.397Z,101858.75
2024-04-22T22:18:13.159Z,101859.81
2024-04-22T22:20:38.615Z,101860.50
2024-04-22T22:23:01.347Z,101855.75
2024-04-22T22:25:27.041Z,101852.22
2024-04-22T22:27:52.734Z,101852.31
2024-04-22T22:30:18.033Z,101852.31
2024-04-22T22:32:40.926Z,101849.50
2024-04-22T22:35:06.363Z,101854.81
2024-04-22T22:37:29.014Z,101852.13
2024-04-22T22:39:54.218Z,101853.09
2024-04-22T22:42:16.915Z,101851.97
2024-04-22T22:44:44.902Z,101851.09
2024-04-22T22:47:08.786Z,101850.06
2024-04-22T22:49:34.267Z,101847.34
2024-04-22T22:51:57.080Z,101845.50
2024-04-22T22:54:22.356Z,101839.31
2024-04-22T22:56:45.078Z,101838.91
2024-04-22T22:59:10.524Z,101836.81
2024-04-22T23:01:36.113Z,101833.72
2024-04-22T23:04:01.365Z,101834.88
2024-04-22T23:06:24.000Z,101836.47
2024-04-22T23:08:49.212Z,101834.88
2024-04-22T23:11:11.975Z,101827.81
2024-04-22T23:13:37.338Z,101831.38
2024-04-22T23:16:00.023Z,101826.59
2024-04-22T23:18:27.892Z,101826.94
2024-04-22T23:20:50.528Z,101819.75
2024-04-22T23:23:15.758Z,101817.31
2024-04-22T23:25:38.427Z,101818.38
2024-04-22T23:28:03.702Z,101813.06
2024-04-22T23:30:26.367Z,101817.53
2024-04-22T23:32:52.170Z,101815.25
2024-04-22T23:35:17.556Z,101806.69
2024-04-22T23:37:42.797Z,101803.75
2024-04-22T23:40:06.843Z,101805.97
2024-04-22T23:42:32.013Z,101808.50
2024-04-22T23:44:54.900Z,101807.97
2024-04-22T23:47:20.317Z,101806.66
2024-04-22T23:49:43.152Z,101802.16
2024-04-22T23:52:11.368Z,101801.19
2024-04-22T23:54:34.007Z,101799.06
2024-04-22T23:57:03.774Z,101796.75
2024-04-22T23:59:26.504Z,101795.06
